Flinter Rose — PBUB — position and weather

sailwx.info

Track history (hours):
 
Tides and Currents Weather Stations Pressure Air Temp Water Temp Dewpoint Dewpoint Depression Visibility Wind Speed Wind Dir Waves Ship Positions

Flinter Rose

Last reported at 2014-Oct-28 16:23 UTC. Time now 2014-Oct-30 15:58 UTC.
Position N 50°36' E 000°20'.

Length 101 m; draft 6.8 m.

Type: Cargo ship. MMSI: 246227000.

Date/timePositionNaut miles runAvg speedWind from/ knotsBaromVisibWave heightAir tempDewpointWater temp
2014-Oct-28 16:23N 50°36' E 000°20'910.7
2014-Oct-28 15:34N 50°38' E 000°34'10 9.8
2014-Oct-28 14:33N 50°44' E 000°46'9 8.8
2014-Oct-28 13:33N 50°49' E 000°58'29 9.7
2014-Oct-28 10:33N 51°07' E 001°34'1312.9
2014-Oct-28 09:33N 51°16' E 001°48'1111.5
2014-Oct-28 08:33N 51°25' E 002°01'1111.2
2014-Oct-28 07:33N 51°21' E 002°18'1110.9
2014-Oct-28 06:33N 51°23' E 002°35'10 9.7
2014-Oct-28 05:33N 51°23' E 002°51'9 9.3
2014-Oct-28 04:32N 51°24' E 003°06'9 9.3
2014-Oct-28 03:32N 51°25' E 003°21'8 8.5
2014-Oct-28 02:33N 51°26' E 003°34'6 5.6
2014-Oct-28 01:33N 51°24' E 003°43'6 6.2
2014-Oct-28 00:34N 51°20' E 003°49'1 1.1
2014-Oct-27 23:34N 51°19' E 003°50'6 5.9
2014-Oct-27 22:33N 51°13' E 003°48'4 3.6
2014-Oct-27 21:31N 51°09' E 003°47'0 0.0
2014-Oct-27 20:31N 51°09' E 003°47'0 0.0
2014-Oct-27 19:34N 51°09' E 003°47'0 0.0
2014-Oct-27 18:33N 51°09' E 003°47'0 0.0
2014-Oct-27 17:34N 51°09' E 003°47'0 0.0
2014-Oct-27 16:34N 51°09' E 003°47'0 0.0
2014-Oct-27 15:33N 51°09' E 003°47'0 0.0
2014-Oct-27 14:33N 51°09' E 003°47'0 0.0
2014-Oct-27 13:28N 51°09' E 003°47'0 0.0
2014-Oct-27 12:28N 51°09' E 003°47'0 0.0
2014-Oct-27 11:34N 51°09' E 003°47'2 1.4
2014-Oct-27 10:29N 51°11' E 003°48'0 0.0
2014-Oct-27 09:29N 51°11' E 003°48'0 0.0
2014-Oct-27 08:32N 51°11' E 003°48'0 0.0
2014-Oct-27 07:32N 51°11' E 003°48'0 0.0
2014-Oct-27 06:32N 51°11' E 003°48'0 0.0
2014-Oct-27 05:32N 51°11' E 003°48'0 0.0
2014-Oct-27 04:32N 51°11' E 003°48'0 0.0
2014-Oct-27 03:29N 51°11' E 003°48'0 0.0
2014-Oct-27 02:29N 51°11' E 003°48'0 0.0
2014-Oct-27 01:32N 51°11' E 003°48'0 0.0
2014-Oct-27 00:29N 51°11' E 003°48'0 0.0
2014-Oct-26 23:26N 51°11' E 003°48'0 0.0
2014-Oct-26 22:29N 51°11' E 003°48'0 0.0
2014-Oct-26 21:26N 51°11' E 003°48'0 0.0
2014-Oct-26 20:29N 51°11' E 003°48'0 0.0
2014-Oct-26 19:32N 51°11' E 003°48'0 0.0
2014-Oct-26 18:32N 51°11' E 003°48'0 0.0
2014-Oct-26 17:32N 51°11' E 003°48'0 0.0
2014-Oct-26 16:32N 51°11' E 003°48'0 0.0
2014-Oct-26 15:32N 51°11' E 003°48'0 0.0
2014-Oct-26 14:32N 51°11' E 003°48'0 0.0
2014-Oct-26 13:32N 51°11' E 003°48'0 0.0
2014-Oct-26 12:32N 51°11' E 003°48'0 0.0
2014-Oct-26 11:29N 51°11' E 003°48'0 0.0
2014-Oct-26 10:32N 51°11' E 003°48'0 0.0
2014-Oct-26 09:32N 51°11' E 003°48'0 0.0
2014-Oct-26 08:32N 51°11' E 003°48'0 0.0
2014-Oct-26 07:32N 51°11' E 003°48'0 0.0
2014-Oct-26 06:29N 51°11' E 003°48'0 0.0
2014-Oct-26 05:32N 51°11' E 003°48'0 0.0
2014-Oct-26 04:32N 51°11' E 003°48'0 0.0
2014-Oct-26 03:29N 51°11' E 003°48'0 0.0
2014-Oct-26 02:29N 51°11' E 003°48'0 0.0
2014-Oct-26 01:32N 51°11' E 003°48'0 0.0
2014-Oct-26 00:32N 51°11' E 003°48'0 0.0
2014-Oct-25 23:29N 51°11' E 003°48'0 0.0
2014-Oct-25 22:29N 51°11' E 003°48'0 0.0
2014-Oct-25 21:26N 51°11' E 003°48'0 0.0
2014-Oct-25 20:32N 51°11' E 003°48'0 0.0
2014-Oct-25 19:29N 51°11' E 003°48'0 0.0
2014-Oct-25 18:32N 51°11' E 003°48'0 0.0
2014-Oct-25 17:29N 51°11' E 003°48'0 0.0
2014-Oct-25 16:32N 51°11' E 003°48'1 0.7
2014-Oct-25 15:33N 51°10' E 003°47'0 0.0
2014-Oct-25 14:33N 51°10' E 003°47'0 0.0
2014-Oct-25 13:33N 51°10' E 003°47'0 0.0
2014-Oct-25 12:33N 51°10' E 003°47'0 0.0
2014-Oct-25 11:33N 51°10' E 003°47'0 0.0
2014-Oct-25 10:33N 51°10' E 003°47'0 0.0
2014-Oct-25 09:33N 51°10' E 003°47'0 0.0
2014-Oct-25 08:33N 51°10' E 003°47'0 0.0
2014-Oct-25 07:33N 51°10' E 003°47'0 0.0
2014-Oct-25 06:33N 51°10' E 003°47'0 0.0
2014-Oct-25 05:33N 51°10' E 003°47'0 0.0
2014-Oct-25 04:33N 51°10' E 003°47'0 0.0
2014-Oct-25 03:33N 51°10' E 003°47'0 0.0
2014-Oct-25 02:33N 51°10' E 003°47'0 0.0
2014-Oct-25 01:33N 51°10' E 003°47'0 0.0
2014-Oct-25 00:33N 51°10' E 003°47'0 0.0
2014-Oct-24 23:27N 51°10' E 003°47'0 0.0
2014-Oct-24 22:33N 51°10' E 003°47'0 0.0
2014-Oct-24 21:27N 51°10' E 003°47'0 0.0
2014-Oct-24 20:33N 51°10' E 003°47'0 0.0
2014-Oct-24 19:33N 51°10' E 003°47'0 0.0
2014-Oct-24 18:33N 51°10' E 003°47'0 0.0
2014-Oct-24 17:33N 51°10' E 003°47'0 0.0
2014-Oct-24 16:33N 51°10' E 003°47'0 0.0
2014-Oct-24 15:33N 51°10' E 003°47'0 0.0
2014-Oct-24 14:33N 51°10' E 003°47'0 0.0
2014-Oct-24 13:33N 51°10' E 003°47'0 0.0
2014-Oct-24 12:33N 51°10' E 003°47'0 0.0
2014-Oct-24 11:33N 51°10' E 003°47'0 0.0
2014-Oct-24 10:33N 51°10' E 003°47'0 0.0
2014-Oct-24 09:33N 51°10' E 003°47'0 0.0
2014-Oct-24 08:33N 51°10' E 003°47'0 0.0
2014-Oct-24 07:30N 51°10' E 003°47'0 0.0
2014-Oct-24 06:33N 51°10' E 003°47'0 0.0
2014-Oct-24 05:33N 51°10' E 003°47'0 0.0
2014-Oct-24 04:33N 51°10' E 003°47'0 0.0
2014-Oct-24 03:33N 51°10' E 003°47'0 0.0
2014-Oct-24 02:30N 51°10' E 003°47'0 0.0
2014-Oct-24 01:33N 51°10' E 003°47'0 0.0
2014-Oct-24 00:33N 51°10' E 003°47'0 0.0
2014-Oct-23 23:30N 51°10' E 003°47'0 0.0
2014-Oct-23 22:28N 51°10' E 003°47'0 0.0
2014-Oct-23 21:33N 51°10' E 003°47'0 0.0
2014-Oct-23 20:33N 51°10' E 003°47'0 0.0
2014-Oct-23 19:33N 51°10' E 003°47'0 0.0
2014-Oct-23 18:33N 51°10' E 003°47'0 0.0
2014-Oct-23 17:33N 51°10' E 003°47'0 0.0
2014-Oct-23 16:33N 51°10' E 003°47'0 0.0
2014-Oct-23 15:33N 51°10' E 003°47'0 0.0
2014-Oct-23 14:33N 51°10' E 003°47'0 0.0
2014-Oct-23 13:33N 51°10' E 003°47'0 0.0
2014-Oct-23 12:33N 51°10' E 003°47'0 0.0
2014-Oct-23 11:33N 51°10' E 003°47'0 0.0
2014-Oct-23 10:33N 51°10' E 003°47'0 0.0
2014-Oct-23 09:33N 51°10' E 003°47'0 0.0
2014-Oct-23 08:33N 51°10' E 003°47'0 0.0
2014-Oct-23 07:33N 51°10' E 003°47'0 0.0
2014-Oct-23 06:33N 51°10' E 003°47'0 0.0
2014-Oct-23 05:33N 51°10' E 003°47'0 0.0
2014-Oct-23 04:33N 51°10' E 003°47'0 0.0
2014-Oct-23 03:33N 51°10' E 003°47'0 0.0
2014-Oct-23 02:33N 51°10' E 003°47'0 0.0
2014-Oct-23 01:33N 51°10' E 003°47'0 0.0
2014-Oct-23 00:27N 51°10' E 003°47'0 0.0
2014-Oct-22 23:30N 51°10' E 003°47'0 0.0
2014-Oct-22 22:33N 51°10' E 003°47'0 0.0
2014-Oct-22 21:27N 51°10' E 003°47'0 0.0
2014-Oct-22 20:33N 51°10' E 003°47'0 0.0
2014-Oct-22 19:33N 51°10' E 003°47'0 0.0
2014-Oct-22 18:33N 51°10' E 003°47'0 0.0
2014-Oct-22 17:33N 51°10' E 003°47'0 0.0
2014-Oct-22 16:33N 51°10' E 003°47'0 0.0
2014-Oct-22 15:33N 51°10' E 003°47'0 0.0
2014-Oct-22 14:33N 51°10' E 003°47'0 0.0
2014-Oct-22 13:33N 51°10' E 003°47'0 0.0
2014-Oct-22 12:33N 51°10' E 003°47'0 0.0
2014-Oct-22 11:27N 51°10' E 003°47'0 0.0
2014-Oct-22 10:33N 51°10' E 003°47'0 0.0
2014-Oct-22 09:33N 51°10' E 003°47'0 0.0
2014-Oct-22 08:33N 51°10' E 003°47'0 0.0
2014-Oct-22 07:33N 51°10' E 003°47'0 0.0
2014-Oct-22 06:27N 51°10' E 003°47'0 0.0
2014-Oct-22 05:33N 51°10' E 003°47'0 0.0
2014-Oct-22 04:33N 51°10' E 003°47'0 0.0
2014-Oct-22 03:33N 51°10' E 003°47'0 0.0
2014-Oct-22 02:30N 51°10' E 003°47'0 0.0
2014-Oct-22 01:33N 51°10' E 003°47'0 0.0
2014-Oct-22 00:33N 51°10' E 003°47'0 0.0
2014-Oct-21 23:33N 51°10' E 003°47'0 0.0
2014-Oct-21 22:33N 51°10' E 003°47'0 0.0
2014-Oct-21 21:33N 51°10' E 003°47'0 0.0
2014-Oct-21 20:33N 51°10' E 003°47'0 0.0
2014-Oct-21 19:33N 51°10' E 003°47'0 0.0
2014-Oct-21 18:33N 51°10' E 003°47'0 0.0
2014-Oct-21 17:33N 51°10' E 003°47'0 0.0
2014-Oct-21 16:33N 51°10' E 003°47'0 0.0
2014-Oct-21 15:33N 51°10' E 003°47'0 0.0
2014-Oct-21 14:27N 51°10' E 003°47'0 0.0
2014-Oct-21 13:31N 51°10' E 003°47'0 0.0
2014-Oct-21 12:30N 51°10' E 003°47'0 0.0
2014-Oct-21 11:33N 51°10' E 003°47'0 0.0
2014-Oct-21 10:33N 51°10' E 003°47'0 0.0
2014-Oct-21 09:33N 51°10' E 003°47'0 0.0
2014-Oct-21 08:33N 51°10' E 003°47'0 0.0
2014-Oct-21 07:33N 51°10' E 003°47'0 0.0
2014-Oct-21 06:33N 51°10' E 003°47'0 0.0
2014-Oct-21 05:33N 51°10' E 003°47'0 0.0
2014-Oct-21 04:30N 51°10' E 003°47'0 0.0
2014-Oct-21 03:33N 51°10' E 003°47'0 0.0
2014-Oct-21 02:33N 51°10' E 003°47'0 0.0
2014-Oct-21 01:33N 51°10' E 003°47'0 0.0
2014-Oct-21 00:27N 51°10' E 003°47'0 0.0
2014-Oct-20 23:33N 51°10' E 003°47'0 0.0
2014-Oct-20 22:33N 51°10' E 003°47'0 0.0
2014-Oct-20 21:30N 51°10' E 003°47'0 0.0
2014-Oct-20 20:33N 51°10' E 003°47'0 0.0
2014-Oct-20 19:33N 51°10' E 003°47'0 0.0
2014-Oct-20 18:30N 51°10' E 003°47'0 0.0
2014-Oct-20 17:33N 51°10' E 003°47'0 0.0
2014-Oct-20 16:30N 51°10' E 003°47'0 0.0
2014-Oct-20 15:33N 51°10' E 003°47'0 0.0
2014-Oct-20 14:33N 51°10' E 003°47'0 0.0
2014-Oct-20 13:33N 51°10' E 003°47'0 0.0
2014-Oct-20 12:33N 51°10' E 003°47'0 0.0
2014-Oct-20 11:33N 51°10' E 003°47'0 0.0
2014-Oct-20 10:33N 51°10' E 003°47'0 0.0
2014-Oct-20 09:33N 51°10' E 003°47'0 0.0
2014-Oct-20 08:30N 51°10' E 003°47'0 0.0
2014-Oct-20 07:33N 51°10' E 003°47'0 0.0
2014-Oct-20 06:33N 51°10' E 003°47'0 0.0
2014-Oct-20 05:33N 51°10' E 003°47'0 0.0
2014-Oct-20 04:33N 51°10' E 003°47'0 0.0
2014-Oct-20 03:32N 51°10' E 003°47'0 0.0
2014-Oct-20 02:32N 51°10' E 003°47'0 0.0
2014-Oct-20 01:29N 51°10' E 003°47'0 0.0
2014-Oct-20 00:32N 51°10' E 003°47'0 0.0
2014-Oct-19 23:32N 51°10' E 003°47'0 0.0
2014-Oct-19 22:32N 51°10' E 003°47'0 0.0
2014-Oct-19 21:29N 51°10' E 003°47'0 0.0
2014-Oct-19 20:29N 51°10' E 003°47'0 0.0
2014-Oct-19 19:32N 51°10' E 003°47'0 0.0
2014-Oct-19 18:32N 51°10' E 003°47'0 0.0
2014-Oct-19 17:32N 51°10' E 003°47'0 0.0
2014-Oct-19 16:32N 51°10' E 003°47'0 0.0
2014-Oct-19 15:29N 51°10' E 003°47'0 0.0
2014-Oct-19 14:32N 51°10' E 003°47'0 0.0
2014-Oct-19 13:32N 51°10' E 003°47'0 0.0
2014-Oct-19 12:29N 51°10' E 003°47'0 0.0
2014-Oct-19 11:32N 51°10' E 003°47'0 0.0
2014-Oct-19 10:29N 51°10' E 003°47'0 0.0
2014-Oct-19 09:32N 51°10' E 003°47'0 0.0
2014-Oct-19 08:32N 51°10' E 003°47'0 0.0
2014-Oct-19 07:32N 51°10' E 003°47'0 0.0
2014-Oct-19 06:32N 51°10' E 003°47'0 0.0
2014-Oct-19 05:29N 51°10' E 003°47'0 0.0
2014-Oct-19 04:32N 51°10' E 003°47'0 0.0
2014-Oct-19 03:23N 51°10' E 003°47'0 0.0
2014-Oct-19 02:32N 51°10' E 003°47'0 0.0
2014-Oct-19 01:32N 51°10' E 003°47'0 0.0
2014-Oct-19 00:26N 51°10' E 003°47'0 0.0
2014-Oct-18 23:29N 51°10' E 003°47'0 0.0
2014-Oct-18 22:26N 51°10' E 003°47'0 0.0
2014-Oct-18 21:26N 51°10' E 003°47'0 0.0
2014-Oct-18 20:29N 51°10' E 003°47'0 0.0
2014-Oct-18 19:29N 51°10' E 003°47'0 0.0
2014-Oct-18 18:29N 51°10' E 003°47'0 0.0
2014-Oct-18 17:29N 51°10' E 003°47'0 0.0
2014-Oct-18 16:32N 51°10' E 003°47'  
Track history (hours):
 
Tides and Currents Weather Stations Pressure Air Temp Water Temp Dewpoint Dewpoint Depression Visibility Wind Speed Wind Dir Waves Ship Positions

Flinter Rose

Last reported at 2014-Oct-28 16:23 UTC. Time now 2014-Oct-30 15:58 UTC.
Position N 50°36' E 000°20'.

Length 101 m; draft 6.8 m.

Type: Cargo ship. MMSI: 246227000.

Date/timePositionNaut miles runAvg speedWind from/ knotsBaromVisibWave heightAir tempDewpointWater temp
2014-Oct-28 16:23N 50°36' E 000°20'910.7
2014-Oct-28 15:34N 50°38' E 000°34'10 9.8
2014-Oct-28 14:33N 50°44' E 000°46'9 8.8
2014-Oct-28 13:33N 50°49' E 000°58'29 9.7
2014-Oct-28 10:33N 51°07' E 001°34'1312.9
2014-Oct-28 09:33N 51°16' E 001°48'1111.5
2014-Oct-28 08:33N 51°25' E 002°01'1111.2
2014-Oct-28 07:33N 51°21' E 002°18'1110.9
2014-Oct-28 06:33N 51°23' E 002°35'10 9.7
2014-Oct-28 05:33N 51°23' E 002°51'9 9.3
2014-Oct-28 04:32N 51°24' E 003°06'9 9.3
2014-Oct-28 03:32N 51°25' E 003°21'8 8.5
2014-Oct-28 02:33N 51°26' E 003°34'6 5.6
2014-Oct-28 01:33N 51°24' E 003°43'6 6.2
2014-Oct-28 00:34N 51°20' E 003°49'1 1.1
2014-Oct-27 23:34N 51°19' E 003°50'6 5.9
2014-Oct-27 22:33N 51°13' E 003°48'4 3.6
2014-Oct-27 21:31N 51°09' E 003°47'0 0.0
2014-Oct-27 20:31N 51°09' E 003°47'0 0.0
2014-Oct-27 19:34N 51°09' E 003°47'0 0.0
2014-Oct-27 18:33N 51°09' E 003°47'0 0.0
2014-Oct-27 17:34N 51°09' E 003°47'0 0.0
2014-Oct-27 16:34N 51°09' E 003°47'0 0.0
2014-Oct-27 15:33N 51°09' E 003°47'0 0.0
2014-Oct-27 14:33N 51°09' E 003°47'0 0.0
2014-Oct-27 13:28N 51°09' E 003°47'0 0.0
2014-Oct-27 12:28N 51°09' E 003°47'0 0.0
2014-Oct-27 11:34N 51°09' E 003°47'2 1.4
2014-Oct-27 10:29N 51°11' E 003°48'0 0.0
2014-Oct-27 09:29N 51°11' E 003°48'0 0.0
2014-Oct-27 08:32N 51°11' E 003°48'0 0.0
2014-Oct-27 07:32N 51°11' E 003°48'0 0.0
2014-Oct-27 06:32N 51°11' E 003°48'0 0.0
2014-Oct-27 05:32N 51°11' E 003°48'0 0.0
2014-Oct-27 04:32N 51°11' E 003°48'0 0.0
2014-Oct-27 03:29N 51°11' E 003°48'0 0.0
2014-Oct-27 02:29N 51°11' E 003°48'0 0.0
2014-Oct-27 01:32N 51°11' E 003°48'0 0.0
2014-Oct-27 00:29N 51°11' E 003°48'0 0.0
2014-Oct-26 23:26N 51°11' E 003°48'0 0.0
2014-Oct-26 22:29N 51°11' E 003°48'0 0.0
2014-Oct-26 21:26N 51°11' E 003°48'0 0.0
2014-Oct-26 20:29N 51°11' E 003°48'0 0.0
2014-Oct-26 19:32N 51°11' E 003°48'0 0.0
2014-Oct-26 18:32N 51°11' E 003°48'0 0.0
2014-Oct-26 17:32N 51°11' E 003°48'0 0.0
2014-Oct-26 16:32N 51°11' E 003°48'0 0.0
2014-Oct-26 15:32N 51°11' E 003°48'0 0.0
2014-Oct-26 14:32N 51°11' E 003°48'0 0.0
2014-Oct-26 13:32N 51°11' E 003°48'0 0.0
2014-Oct-26 12:32N 51°11' E 003°48'0 0.0
2014-Oct-26 11:29N 51°11' E 003°48'0 0.0
2014-Oct-26 10:32N 51°11' E 003°48'0 0.0
2014-Oct-26 09:32N 51°11' E 003°48'0 0.0
2014-Oct-26 08:32N 51°11' E 003°48'0 0.0
2014-Oct-26 07:32N 51°11' E 003°48'0 0.0
2014-Oct-26 06:29N 51°11' E 003°48'0 0.0
2014-Oct-26 05:32N 51°11' E 003°48'0 0.0
2014-Oct-26 04:32N 51°11' E 003°48'0 0.0
2014-Oct-26 03:29N 51°11' E 003°48'0 0.0
2014-Oct-26 02:29N 51°11' E 003°48'0 0.0
2014-Oct-26 01:32N 51°11' E 003°48'0 0.0
2014-Oct-26 00:32N 51°11' E 003°48'0 0.0
2014-Oct-25 23:29N 51°11' E 003°48'0 0.0
2014-Oct-25 22:29N 51°11' E 003°48'0 0.0
2014-Oct-25 21:26N 51°11' E 003°48'0 0.0
2014-Oct-25 20:32N 51°11' E 003°48'0 0.0
2014-Oct-25 19:29N 51°11' E 003°48'0 0.0
2014-Oct-25 18:32N 51°11' E 003°48'0 0.0
2014-Oct-25 17:29N 51°11' E 003°48'0 0.0
2014-Oct-25 16:32N 51°11' E 003°48'1 0.7
2014-Oct-25 15:33N 51°10' E 003°47'0 0.0
2014-Oct-25 14:33N 51°10' E 003°47'0 0.0
2014-Oct-25 13:33N 51°10' E 003°47'0 0.0
2014-Oct-25 12:33N 51°10' E 003°47'0 0.0
2014-Oct-25 11:33N 51°10' E 003°47'0 0.0
2014-Oct-25 10:33N 51°10' E 003°47'0 0.0
2014-Oct-25 09:33N 51°10' E 003°47'0 0.0
2014-Oct-25 08:33N 51°10' E 003°47'0 0.0
2014-Oct-25 07:33N 51°10' E 003°47'0 0.0
2014-Oct-25 06:33N 51°10' E 003°47'0 0.0
2014-Oct-25 05:33N 51°10' E 003°47'0 0.0
2014-Oct-25 04:33N 51°10' E 003°47'0 0.0
2014-Oct-25 03:33N 51°10' E 003°47'0 0.0
2014-Oct-25 02:33N 51°10' E 003°47'0 0.0
2014-Oct-25 01:33N 51°10' E 003°47'0 0.0
2014-Oct-25 00:33N 51°10' E 003°47'0 0.0
2014-Oct-24 23:27N 51°10' E 003°47'0 0.0
2014-Oct-24 22:33N 51°10' E 003°47'0 0.0
2014-Oct-24 21:27N 51°10' E 003°47'0 0.0
2014-Oct-24 20:33N 51°10' E 003°47'0 0.0
2014-Oct-24 19:33N 51°10' E 003°47'0 0.0
2014-Oct-24 18:33N 51°10' E 003°47'0 0.0
2014-Oct-24 17:33N 51°10' E 003°47'0 0.0
2014-Oct-24 16:33N 51°10' E 003°47'0 0.0
2014-Oct-24 15:33N 51°10' E 003°47'0 0.0
2014-Oct-24 14:33N 51°10' E 003°47'0 0.0
2014-Oct-24 13:33N 51°10' E 003°47'0 0.0
2014-Oct-24 12:33N 51°10' E 003°47'0 0.0
2014-Oct-24 11:33N 51°10' E 003°47'0 0.0
2014-Oct-24 10:33N 51°10' E 003°47'0 0.0
2014-Oct-24 09:33N 51°10' E 003°47'0 0.0
2014-Oct-24 08:33N 51°10' E 003°47'0 0.0
2014-Oct-24 07:30N 51°10' E 003°47'0 0.0
2014-Oct-24 06:33N 51°10' E 003°47'0 0.0
2014-Oct-24 05:33N 51°10' E 003°47'0 0.0
2014-Oct-24 04:33N 51°10' E 003°47'0 0.0
2014-Oct-24 03:33N 51°10' E 003°47'0 0.0
2014-Oct-24 02:30N 51°10' E 003°47'0 0.0
2014-Oct-24 01:33N 51°10' E 003°47'0 0.0
2014-Oct-24 00:33N 51°10' E 003°47'0 0.0
2014-Oct-23 23:30N 51°10' E 003°47'0 0.0
2014-Oct-23 22:28N 51°10' E 003°47'0 0.0
2014-Oct-23 21:33N 51°10' E 003°47'0 0.0
2014-Oct-23 20:33N 51°10' E 003°47'0 0.0
2014-Oct-23 19:33N 51°10' E 003°47'0 0.0
2014-Oct-23 18:33N 51°10' E 003°47'0 0.0
2014-Oct-23 17:33N 51°10' E 003°47'0 0.0
2014-Oct-23 16:33N 51°10' E 003°47'0 0.0
2014-Oct-23 15:33N 51°10' E 003°47'0 0.0
2014-Oct-23 14:33N 51°10' E 003°47'0 0.0
2014-Oct-23 13:33N 51°10' E 003°47'0 0.0
2014-Oct-23 12:33N 51°10' E 003°47'0 0.0
2014-Oct-23 11:33N 51°10' E 003°47'0 0.0
2014-Oct-23 10:33N 51°10' E 003°47'0 0.0
2014-Oct-23 09:33N 51°10' E 003°47'0 0.0
2014-Oct-23 08:33N 51°10' E 003°47'0 0.0
2014-Oct-23 07:33N 51°10' E 003°47'0 0.0
2014-Oct-23 06:33N 51°10' E 003°47'0 0.0
2014-Oct-23 05:33N 51°10' E 003°47'0 0.0
2014-Oct-23 04:33N 51°10' E 003°47'0 0.0
2014-Oct-23 03:33N 51°10' E 003°47'0 0.0
2014-Oct-23 02:33N 51°10' E 003°47'0 0.0
2014-Oct-23 01:33N 51°10' E 003°47'0 0.0
2014-Oct-23 00:27N 51°10' E 003°47'0 0.0
2014-Oct-22 23:30N 51°10' E 003°47'0 0.0
2014-Oct-22 22:33N 51°10' E 003°47'0 0.0
2014-Oct-22 21:27N 51°10' E 003°47'0 0.0
2014-Oct-22 20:33N 51°10' E 003°47'0 0.0
2014-Oct-22 19:33N 51°10' E 003°47'0 0.0
2014-Oct-22 18:33N 51°10' E 003°47'0 0.0
2014-Oct-22 17:33N 51°10' E 003°47'0 0.0
2014-Oct-22 16:33N 51°10' E 003°47'0 0.0
2014-Oct-22 15:33N 51°10' E 003°47'0 0.0
2014-Oct-22 14:33N 51°10' E 003°47'0 0.0
2014-Oct-22 13:33N 51°10' E 003°47'0 0.0
2014-Oct-22 12:33N 51°10' E 003°47'0 0.0
2014-Oct-22 11:27N 51°10' E 003°47'0 0.0
2014-Oct-22 10:33N 51°10' E 003°47'0 0.0
2014-Oct-22 09:33N 51°10' E 003°47'0 0.0
2014-Oct-22 08:33N 51°10' E 003°47'0 0.0
2014-Oct-22 07:33N 51°10' E 003°47'0 0.0
2014-Oct-22 06:27N 51°10' E 003°47'0 0.0
2014-Oct-22 05:33N 51°10' E 003°47'0 0.0
2014-Oct-22 04:33N 51°10' E 003°47'0 0.0
2014-Oct-22 03:33N 51°10' E 003°47'0 0.0
2014-Oct-22 02:30N 51°10' E 003°47'0 0.0
2014-Oct-22 01:33N 51°10' E 003°47'0 0.0
2014-Oct-22 00:33N 51°10' E 003°47'0 0.0
2014-Oct-21 23:33N 51°10' E 003°47'0 0.0
2014-Oct-21 22:33N 51°10' E 003°47'0 0.0
2014-Oct-21 21:33N 51°10' E 003°47'0 0.0
2014-Oct-21 20:33N 51°10' E 003°47'0 0.0
2014-Oct-21 19:33N 51°10' E 003°47'0 0.0
2014-Oct-21 18:33N 51°10' E 003°47'0 0.0
2014-Oct-21 17:33N 51°10' E 003°47'0 0.0
2014-Oct-21 16:33N 51°10' E 003°47'0 0.0
2014-Oct-21 15:33N 51°10' E 003°47'0 0.0
2014-Oct-21 14:27N 51°10' E 003°47'0 0.0
2014-Oct-21 13:31N 51°10' E 003°47'0 0.0
2014-Oct-21 12:30N 51°10' E 003°47'0 0.0
2014-Oct-21 11:33N 51°10' E 003°47'0 0.0
2014-Oct-21 10:33N 51°10' E 003°47'0 0.0
2014-Oct-21 09:33N 51°10' E 003°47'0 0.0
2014-Oct-21 08:33N 51°10' E 003°47'0 0.0
2014-Oct-21 07:33N 51°10' E 003°47'0 0.0
2014-Oct-21 06:33N 51°10' E 003°47'0 0.0
2014-Oct-21 05:33N 51°10' E 003°47'0 0.0
2014-Oct-21 04:30N 51°10' E 003°47'0 0.0
2014-Oct-21 03:33N 51°10' E 003°47'0 0.0
2014-Oct-21 02:33N 51°10' E 003°47'0 0.0
2014-Oct-21 01:33N 51°10' E 003°47'0 0.0
2014-Oct-21 00:27N 51°10' E 003°47'0 0.0
2014-Oct-20 23:33N 51°10' E 003°47'0 0.0
2014-Oct-20 22:33N 51°10' E 003°47'0 0.0
2014-Oct-20 21:30N 51°10' E 003°47'0 0.0
2014-Oct-20 20:33N 51°10' E 003°47'0 0.0
2014-Oct-20 19:33N 51°10' E 003°47'0 0.0
2014-Oct-20 18:30N 51°10' E 003°47'0 0.0
2014-Oct-20 17:33N 51°10' E 003°47'0 0.0
2014-Oct-20 16:30N 51°10' E 003°47'0 0.0
2014-Oct-20 15:33N 51°10' E 003°47'0 0.0
2014-Oct-20 14:33N 51°10' E 003°47'0 0.0
2014-Oct-20 13:33N 51°10' E 003°47'0 0.0
2014-Oct-20 12:33N 51°10' E 003°47'0 0.0
2014-Oct-20 11:33N 51°10' E 003°47'0 0.0
2014-Oct-20 10:33N 51°10' E 003°47'0 0.0
2014-Oct-20 09:33N 51°10' E 003°47'0 0.0
2014-Oct-20 08:30N 51°10' E 003°47'0 0.0
2014-Oct-20 07:33N 51°10' E 003°47'0 0.0
2014-Oct-20 06:33N 51°10' E 003°47'0 0.0
2014-Oct-20 05:33N 51°10' E 003°47'0 0.0
2014-Oct-20 04:33N 51°10' E 003°47'0 0.0
2014-Oct-20 03:32N 51°10' E 003°47'0 0.0
2014-Oct-20 02:32N 51°10' E 003°47'0 0.0
2014-Oct-20 01:29N 51°10' E 003°47'0 0.0
2014-Oct-20 00:32N 51°10' E 003°47'0 0.0
2014-Oct-19 23:32N 51°10' E 003°47'0 0.0
2014-Oct-19 22:32N 51°10' E 003°47'0 0.0
2014-Oct-19 21:29N 51°10' E 003°47'0 0.0
2014-Oct-19 20:29N 51°10' E 003°47'0 0.0
2014-Oct-19 19:32N 51°10' E 003°47'0 0.0
2014-Oct-19 18:32N 51°10' E 003°47'0 0.0
2014-Oct-19 17:32N 51°10' E 003°47'0 0.0
2014-Oct-19 16:32N 51°10' E 003°47'0 0.0
2014-Oct-19 15:29N 51°10' E 003°47'0 0.0
2014-Oct-19 14:32N 51°10' E 003°47'0 0.0
2014-Oct-19 13:32N 51°10' E 003°47'0 0.0
2014-Oct-19 12:29N 51°10' E 003°47'0 0.0
2014-Oct-19 11:32N 51°10' E 003°47'0 0.0
2014-Oct-19 10:29N 51°10' E 003°47'0 0.0
2014-Oct-19 09:32N 51°10' E 003°47'0 0.0
2014-Oct-19 08:32N 51°10' E 003°47'0 0.0
2014-Oct-19 07:32N 51°10' E 003°47'0 0.0
2014-Oct-19 06:32N 51°10' E 003°47'0 0.0
2014-Oct-19 05:29N 51°10' E 003°47'0 0.0
2014-Oct-19 04:32N 51°10' E 003°47'0 0.0
2014-Oct-19 03:23N 51°10' E 003°47'0 0.0
2014-Oct-19 02:32N 51°10' E 003°47'0 0.0
2014-Oct-19 01:32N 51°10' E 003°47'0 0.0
2014-Oct-19 00:26N 51°10' E 003°47'0 0.0
2014-Oct-18 23:29N 51°10' E 003°47'0 0.0
2014-Oct-18 22:26N 51°10' E 003°47'0 0.0
2014-Oct-18 21:26N 51°10' E 003°47'0 0.0
2014-Oct-18 20:29N 51°10' E 003°47'0 0.0
2014-Oct-18 19:29N 51°10' E 003°47'0 0.0
2014-Oct-18 18:29N 51°10' E 003°47'0 0.0
2014-Oct-18 17:29N 51°10' E 003°47'0 0.0
2014-Oct-18 16:32N 51°10' E 003°47'  

Dump ship's entire track history